sensor_id;sensor_type;location;lat;lon;timestamp;P1;durP1;ratioP1;P2;durP2;ratioP2
66485;SDS011;53303;47.476;8.084;2023-03-02T00:02:23;10.93;;;5.00;;
66485;SDS011;53303;47.476;8.084;2023-03-02T00:04:49;11.30;;;4.85;;
66485;SDS011;53303;47.476;8.084;2023-03-02T00:07:20;10.75;;;4.90;;
66485;SDS011;53303;47.476;8.084;2023-03-02T00:09:50;9.13;;;4.65;;
66485;SDS011;53303;47.476;8.084;2023-03-02T00:12:19;10.98;;;4.97;;
66485;SDS011;53303;47.476;8.084;2023-03-02T00:14:44;15.23;;;5.40;;
66485;SDS011;53303;47.476;8.084;2023-03-02T00:17:12;10.40;;;5.00;;
66485;SDS011;53303;47.476;8.084;2023-03-02T00:19:38;11.40;;;5.18;;
66485;SDS011;53303;47.476;8.084;2023-03-02T00:22:05;9.63;;;4.63;;
66485;SDS011;53303;47.476;8.084;2023-03-02T00:24:31;9.63;;;5.30;;
66485;SDS011;53303;47.476;8.084;2023-03-02T00:27:00;13.60;;;5.22;;
66485;SDS011;53303;47.476;8.084;2023-03-02T00:29:28;11.95;;;4.97;;
66485;SDS011;53303;47.476;8.084;2023-03-02T00:31:53;11.95;;;4.85;;
66485;SDS011;53303;47.476;8.084;2023-03-02T00:34:19;11.85;;;5.05;;
66485;SDS011;53303;47.476;8.084;2023-03-02T00:36:44;8.68;;;5.05;;
66485;SDS011;53303;47.476;8.084;2023-03-02T00:39:11;11.00;;;5.38;;
66485;SDS011;53303;47.476;8.084;2023-03-02T00:41:37;9.48;;;4.80;;
66485;SDS011;53303;47.476;8.084;2023-03-02T00:44:02;10.15;;;4.85;;
66485;SDS011;53303;47.476;8.084;2023-03-02T00:46:30;13.38;;;5.28;;
66485;SDS011;53303;47.476;8.084;2023-03-02T00:48:55;10.27;;;4.82;;
66485;SDS011;53303;47.476;8.084;2023-03-02T00:51:21;10.93;;;5.32;;
66485;SDS011;53303;47.476;8.084;2023-03-02T00:53:46;10.50;;;5.03;;
66485;SDS011;53303;47.476;8.084;2023-03-02T00:56:14;11.52;;;4.82;;
66485;SDS011;53303;47.476;8.084;2023-03-02T00:58:40;9.75;;;4.82;;
66485;SDS011;53303;47.476;8.084;2023-03-02T01:01:06;10.20;;;5.03;;
66485;SDS011;53303;47.476;8.084;2023-03-02T01:03:34;9.52;;;5.13;;
66485;SDS011;53303;47.476;8.084;2023-03-02T01:05:59;11.15;;;5.03;;
66485;SDS011;53303;47.476;8.084;2023-03-02T01:08:25;9.65;;;4.90;;
66485;SDS011;53303;47.476;8.084;2023-03-02T01:10:50;10.43;;;4.95;;
66485;SDS011;53303;47.476;8.084;2023-03-02T01:13:17;10.10;;;4.95;;
66485;SDS011;53303;47.476;8.084;2023-03-02T01:15:43;10.10;;;4.65;;
66485;SDS011;53303;47.476;8.084;2023-03-02T01:18:08;10.57;;;4.93;;
66485;SDS011;53303;47.476;8.084;2023-03-02T01:20:37;11.20;;;4.68;;
66485;SDS011;53303;47.476;8.084;2023-03-02T01:23:03;9.13;;;5.35;;
66485;SDS011;53303;47.476;8.084;2023-03-02T01:25:28;9.65;;;5.28;;
66485;SDS011;53303;47.476;8.084;2023-03-02T01:27:54;9.38;;;5.07;;
66485;SDS011;53303;47.476;8.084;2023-03-02T01:30:19;11.10;;;4.65;;
66485;SDS011;53303;47.476;8.084;2023-03-02T01:32:45;10.20;;;4.95;;
66485;SDS011;53303;47.476;8.084;2023-03-02T01:35:10;9.07;;;4.93;;
66485;SDS011;53303;47.476;8.084;2023-03-02T01:37:41;11.23;;;4.93;;
66485;SDS011;53303;47.476;8.084;2023-03-02T01:40:06;10.52;;;5.03;;
66485;SDS011;53303;47.476;8.084;2023-03-02T01:42:37;10.43;;;5.38;;
66485;SDS011;53303;47.476;8.084;2023-03-02T01:45:04;9.02;;;5.10;;
66485;SDS011;53303;47.476;8.084;2023-03-02T01:47:50;10.20;;;5.45;;
66485;SDS011;53303;47.476;8.084;2023-03-02T01:52:50;11.27;;;5.38;;
66485;SDS011;53303;47.476;8.084;2023-03-02T01:55:18;11.35;;;5.55;;
66485;SDS011;53303;47.476;8.084;2023-03-02T01:57:52;11.02;;;5.38;;
66485;SDS011;53303;47.476;8.084;2023-03-02T02:00:23;9.18;;;4.93;;
66485;SDS011;53303;47.476;8.084;2023-03-02T02:02:52;10.40;;;5.20;;
66485;SDS011;53303;47.476;8.084;2023-03-02T02:05:32;12.95;;;5.57;;
66485;SDS011;53303;47.476;8.084;2023-03-02T02:08:00;12.43;;;5.05;;
66485;SDS011;53303;47.476;8.084;2023-03-02T02:10:26;10.15;;;5.15;;
66485;SDS011;53303;47.476;8.084;2023-03-02T02:12:52;10.45;;;5.30;;
66485;SDS011;53303;47.476;8.084;2023-03-02T02:15:17;10.32;;;5.25;;
66485;SDS011;53303;47.476;8.084;2023-03-02T02:17:43;9.65;;;5.25;;
66485;SDS011;53303;47.476;8.084;2023-03-02T02:25:59;12.05;;;5.28;;
66485;SDS011;53303;47.476;8.084;2023-03-02T02:28:32;11.88;;;5.00;;
66485;SDS011;53303;47.476;8.084;2023-03-02T02:31:07;13.00;;;5.47;;
66485;SDS011;53303;47.476;8.084;2023-03-02T02:33:33;10.18;;;4.78;;
66485;SDS011;53303;47.476;8.084;2023-03-02T02:36:07;11.60;;;5.10;;
66485;SDS011;53303;47.476;8.084;2023-03-02T02:38:37;12.70;;;5.28;;
66485;SDS011;53303;47.476;8.084;2023-03-02T02:41:05;11.00;;;5.50;;
66485;SDS011;53303;47.476;8.084;2023-03-02T02:43:35;8.65;;;5.15;;
66485;SDS011;53303;47.476;8.084;2023-03-02T02:46:01;10.52;;;5.18;;
66485;SDS011;53303;47.476;8.084;2023-03-02T02:48:29;10.30;;;5.60;;
66485;SDS011;53303;47.476;8.084;2023-03-02T02:50:56;9.95;;;5.35;;
66485;SDS011;53303;47.476;8.084;2023-03-02T02:53:28;11.52;;;5.53;;
66485;SDS011;53303;47.476;8.084;2023-03-02T02:55:59;9.00;;;5.05;;
66485;SDS011;53303;47.476;8.084;2023-03-02T02:58:44;14.45;;;5.50;;
66485;SDS011;53303;47.476;8.084;2023-03-02T03:01:13;10.80;;;5.40;;
66485;SDS011;53303;47.476;8.084;2023-03-02T03:03:42;11.40;;;5.82;;
66485;SDS011;53303;47.476;8.084;2023-03-02T03:06:16;9.57;;;5.35;;
66485;SDS011;53303;47.476;8.084;2023-03-02T03:11:10;9.43;;;5.10;;
66485;SDS011;53303;47.476;8.084;2023-03-02T03:13:43;13.23;;;5.28;;
66485;SDS011;53303;47.476;8.084;2023-03-02T03:16:12;10.75;;;5.53;;
66485;SDS011;53303;47.476;8.084;2023-03-02T03:18:42;9.88;;;5.70;;
66485;SDS011;53303;47.476;8.084;2023-03-02T03:21:12;9.98;;;5.13;;
66485;SDS011;53303;47.476;8.084;2023-03-02T03:23:37;10.05;;;5.55;;
66485;SDS011;53303;47.476;8.084;2023-03-02T03:26:04;11.52;;;5.43;;
66485;SDS011;53303;47.476;8.084;2023-03-02T03:28:30;10.43;;;5.43;;
66485;SDS011;53303;47.476;8.084;2023-03-02T03:30:56;13.43;;;5.50;;
66485;SDS011;53303;47.476;8.084;2023-03-02T03:33:24;8.75;;;5.00;;
66485;SDS011;53303;47.476;8.084;2023-03-02T03:35:49;12.02;;;5.65;;
66485;SDS011;53303;47.476;8.084;2023-03-02T03:38:15;8.75;;;5.35;;
66485;SDS011;53303;47.476;8.084;2023-03-02T03:40:41;9.68;;;5.45;;
66485;SDS011;53303;47.476;8.084;2023-03-02T03:43:06;11.30;;;5.32;;
66485;SDS011;53303;47.476;8.084;2023-03-02T03:45:32;9.65;;;5.70;;
66485;SDS011;53303;47.476;8.084;2023-03-02T03:47:57;10.25;;;5.47;;
66485;SDS011;53303;47.476;8.084;2023-03-02T03:50:22;11.35;;;5.43;;
66485;SDS011;53303;47.476;8.084;2023-03-02T03:52:48;11.73;;;5.40;;
66485;SDS011;53303;47.476;8.084;2023-03-02T03:55:13;11.02;;;5.50;;
66485;SDS011;53303;47.476;8.084;2023-03-02T03:57:39;10.40;;;5.78;;
66485;SDS011;53303;47.476;8.084;2023-03-02T04:00:06;12.23;;;5.45;;
66485;SDS011;53303;47.476;8.084;2023-03-02T04:02:34;10.95;;;5.43;;
66485;SDS011;53303;47.476;8.084;2023-03-02T04:05:01;9.95;;;5.50;;
66485;SDS011;53303;47.476;8.084;2023-03-02T04:07:36;10.38;;;5.57;;
66485;SDS011;53303;47.476;8.084;2023-03-02T04:10:04;11.93;;;5.63;;
66485;SDS011;53303;47.476;8.084;2023-03-02T04:12:34;10.68;;;5.38;;
66485;SDS011;53303;47.476;8.084;2023-03-02T04:15:01;9.98;;;5.82;;
66485;SDS011;53303;47.476;8.084;2023-03-02T04:17:29;8.82;;;5.10;;
66485;SDS011;53303;47.476;8.084;2023-03-02T04:19:54;10.25;;;5.63;;
66485;SDS011;53303;47.476;8.084;2023-03-02T04:22:20;9.85;;;5.45;;
66485;SDS011;53303;47.476;8.084;2023-03-02T04:24:46;10.32;;;5.93;;
66485;SDS011;53303;47.476;8.084;2023-03-02T04:27:12;11.38;;;5.50;;
66485;SDS011;53303;47.476;8.084;2023-03-02T04:29:38;11.50;;;5.38;;
66485;SDS011;53303;47.476;8.084;2023-03-02T04:32:05;11.48;;;5.88;;
66485;SDS011;53303;47.476;8.084;2023-03-02T04:34:32;11.02;;;5.90;;
66485;SDS011;53303;47.476;8.084;2023-03-02T04:36:58;10.48;;;5.88;;
66485;SDS011;53303;47.476;8.084;2023-03-02T04:39:24;8.25;;;4.88;;
66485;SDS011;53303;47.476;8.084;2023-03-02T04:41:50;9.45;;;5.43;;
66485;SDS011;53303;47.476;8.084;2023-03-02T04:44:15;9.85;;;5.32;;
66485;SDS011;53303;47.476;8.084;2023-03-02T04:46:44;11.65;;;5.47;;
66485;SDS011;53303;47.476;8.084;2023-03-02T04:49:12;9.23;;;5.38;;
66485;SDS011;53303;47.476;8.084;2023-03-02T04:51:39;10.60;;;5.82;;
66485;SDS011;53303;47.476;8.084;2023-03-02T04:54:12;10.02;;;5.53;;
66485;SDS011;53303;47.476;8.084;2023-03-02T04:56:47;11.52;;;5.72;;
66485;SDS011;53303;47.476;8.084;2023-03-02T04:59:15;11.15;;;5.30;;
66485;SDS011;53303;47.476;8.084;2023-03-02T05:01:44;11.07;;;5.80;;
66485;SDS011;53303;47.476;8.084;2023-03-02T05:04:13;12.88;;;6.15;;
66485;SDS011;53303;47.476;8.084;2023-03-02T05:06:41;11.70;;;6.90;;
66485;SDS011;53303;47.476;8.084;2023-03-02T05:09:07;18.25;;;7.30;;
66485;SDS011;53303;47.476;8.084;2023-03-02T05:11:33;14.75;;;7.32;;
66485;SDS011;53303;47.476;8.084;2023-03-02T05:13:59;24.08;;;7.28;;
66485;SDS011;53303;47.476;8.084;2023-03-02T05:16:28;20.00;;;7.43;;
66485;SDS011;53303;47.476;8.084;2023-03-02T05:18:56;18.63;;;7.95;;
66485;SDS011;53303;47.476;8.084;2023-03-02T05:21:23;15.80;;;7.60;;
66485;SDS011;53303;47.476;8.084;2023-03-02T05:23:49;13.07;;;7.47;;
66485;SDS011;53303;47.476;8.084;2023-03-02T05:26:16;12.73;;;6.57;;
66485;SDS011;53303;47.476;8.084;2023-03-02T05:28:41;16.77;;;6.75;;
66485;SDS011;53303;47.476;8.084;2023-03-02T05:31:07;14.10;;;7.30;;
66485;SDS011;53303;47.476;8.084;2023-03-02T05:33:33;12.30;;;6.22;;
66485;SDS011;53303;47.476;8.084;2023-03-02T05:35:59;11.88;;;6.55;;
66485;SDS011;53303;47.476;8.084;2023-03-02T05:38:25;13.60;;;6.57;;
66485;SDS011;53303;47.476;8.084;2023-03-02T05:40:51;19.02;;;6.80;;
66485;SDS011;53303;47.476;8.084;2023-03-02T05:43:17;16.50;;;6.85;;
66485;SDS011;53303;47.476;8.084;2023-03-02T05:45:46;13.13;;;6.00;;
66485;SDS011;53303;47.476;8.084;2023-03-02T05:48:14;14.07;;;7.05;;
66485;SDS011;53303;47.476;8.084;2023-03-02T05:50:39;15.38;;;6.60;;
66485;SDS011;53303;47.476;8.084;2023-03-02T05:53:05;12.85;;;6.80;;
66485;SDS011;53303;47.476;8.084;2023-03-02T05:55:30;12.60;;;5.95;;
66485;SDS011;53303;47.476;8.084;2023-03-02T05:58:01;13.25;;;5.90;;
66485;SDS011;53303;47.476;8.084;2023-03-02T06:00:28;14.38;;;6.47;;
66485;SDS011;53303;47.476;8.084;2023-03-02T06:02:54;14.65;;;6.32;;
66485;SDS011;53303;47.476;8.084;2023-03-02T06:05:20;14.60;;;6.35;;
66485;SDS011;53303;47.476;8.084;2023-03-02T06:07:46;14.85;;;6.90;;
66485;SDS011;53303;47.476;8.084;2023-03-02T06:10:13;14.35;;;6.75;;
66485;SDS011;53303;47.476;8.084;2023-03-02T06:12:40;15.50;;;6.57;;
66485;SDS011;53303;47.476;8.084;2023-03-02T06:15:06;11.95;;;6.00;;
66485;SDS011;53303;47.476;8.084;2023-03-02T06:17:32;12.35;;;5.90;;
66485;SDS011;53303;47.476;8.084;2023-03-02T06:20:00;12.70;;;6.88;;
66485;SDS011;53303;47.476;8.084;2023-03-02T06:22:25;15.93;;;6.30;;
66485;SDS011;53303;47.476;8.084;2023-03-02T06:24:53;14.05;;;6.22;;
66485;SDS011;53303;47.476;8.084;2023-03-02T06:27:21;12.57;;;5.93;;
66485;SDS011;53303;47.476;8.084;2023-03-02T06:29:47;18.83;;;6.43;;
66485;SDS011;53303;47.476;8.084;2023-03-02T06:32:13;13.98;;;6.63;;
66485;SDS011;53303;47.476;8.084;2023-03-02T06:34:38;12.15;;;6.55;;
66485;SDS011;53303;47.476;8.084;2023-03-02T06:37:04;10.80;;;6.10;;
66485;SDS011;53303;47.476;8.084;2023-03-02T06:39:29;11.70;;;6.38;;
66485;SDS011;53303;47.476;8.084;2023-03-02T06:41:54;12.60;;;6.18;;
66485;SDS011;53303;47.476;8.084;2023-03-02T06:44:20;11.60;;;6.32;;
66485;SDS011;53303;47.476;8.084;2023-03-02T06:46:46;14.70;;;6.20;;
66485;SDS011;53303;47.476;8.084;2023-03-02T06:49:11;12.32;;;6.00;;
66485;SDS011;53303;47.476;8.084;2023-03-02T06:51:37;13.75;;;7.10;;
66485;SDS011;53303;47.476;8.084;2023-03-02T06:54:03;13.45;;;6.68;;
66485;SDS011;53303;47.476;8.084;2023-03-02T06:56:31;13.02;;;6.53;;
66485;SDS011;53303;47.476;8.084;2023-03-02T06:58:56;12.85;;;6.20;;
66485;SDS011;53303;47.476;8.084;2023-03-02T07:01:22;11.18;;;6.28;;
66485;SDS011;53303;47.476;8.084;2023-03-02T07:03:47;12.20;;;5.90;;
66485;SDS011;53303;47.476;8.084;2023-03-02T07:06:12;11.90;;;5.68;;
66485;SDS011;53303;47.476;8.084;2023-03-02T07:08:39;12.13;;;5.82;;
66485;SDS011;53303;47.476;8.084;2023-03-02T07:11:08;12.38;;;6.35;;
66485;SDS011;53303;47.476;8.084;2023-03-02T07:13:36;12.32;;;6.03;;
66485;SDS011;53303;47.476;8.084;2023-03-02T07:16:06;11.57;;;5.90;;
66485;SDS011;53303;47.476;8.084;2023-03-02T07:18:35;12.27;;;6.25;;
66485;SDS011;53303;47.476;8.084;2023-03-02T07:21:01;10.80;;;6.15;;
66485;SDS011;53303;47.476;8.084;2023-03-02T07:23:27;10.45;;;6.22;;
66485;SDS011;53303;47.476;8.084;2023-03-02T07:25:52;13.95;;;6.63;;
66485;SDS011;53303;47.476;8.084;2023-03-02T07:28:22;12.20;;;5.93;;
66485;SDS011;53303;47.476;8.084;2023-03-02T07:30:48;10.15;;;6.30;;
66485;SDS011;53303;47.476;8.084;2023-03-02T07:33:14;11.90;;;6.25;;
66485;SDS011;53303;47.476;8.084;2023-03-02T07:35:40;11.02;;;6.55;;
66485;SDS011;53303;47.476;8.084;2023-03-02T07:38:07;11.02;;;5.72;;
66485;SDS011;53303;47.476;8.084;2023-03-02T07:40:38;10.23;;;5.90;;
66485;SDS011;53303;47.476;8.084;2023-03-02T07:43:04;11.57;;;6.45;;
66485;SDS011;53303;47.476;8.084;2023-03-02T07:45:30;10.13;;;6.07;;
66485;SDS011;53303;47.476;8.084;2023-03-02T07:47:57;10.55;;;5.72;;
66485;SDS011;53303;47.476;8.084;2023-03-02T07:50:23;11.55;;;6.45;;
66485;SDS011;53303;47.476;8.084;2023-03-02T07:52:50;10.50;;;6.35;;
66485;SDS011;53303;47.476;8.084;2023-03-02T07:55:16;11.02;;;6.57;;
66485;SDS011;53303;47.476;8.084;2023-03-02T07:57:44;11.15;;;6.60;;
66485;SDS011;53303;47.476;8.084;2023-03-02T08:00:11;10.98;;;6.28;;
66485;SDS011;53303;47.476;8.084;2023-03-02T08:02:38;11.40;;;6.30;;
66485;SDS011;53303;47.476;8.084;2023-03-02T08:05:04;10.65;;;5.97;;
66485;SDS011;53303;47.476;8.084;2023-03-02T08:07:30;14.90;;;6.82;;
66485;SDS011;53303;47.476;8.084;2023-03-02T08:09:55;13.52;;;6.35;;
66485;SDS011;53303;47.476;8.084;2023-03-02T08:12:22;10.55;;;6.20;;
66485;SDS011;53303;47.476;8.084;2023-03-02T08:14:47;13.75;;;6.38;;
66485;SDS011;53303;47.476;8.084;2023-03-02T08:17:13;11.93;;;5.95;;
66485;SDS011;53303;47.476;8.084;2023-03-02T08:19:39;10.63;;;6.10;;
66485;SDS011;53303;47.476;8.084;2023-03-02T08:22:04;12.25;;;6.15;;
66485;SDS011;53303;47.476;8.084;2023-03-02T08:24:30;10.90;;;5.88;;
66485;SDS011;53303;47.476;8.084;2023-03-02T08:26:58;13.00;;;6.40;;
66485;SDS011;53303;47.476;8.084;2023-03-02T08:29:27;11.82;;;6.72;;
66485;SDS011;53303;47.476;8.084;2023-03-02T08:31:53;14.55;;;7.07;;
66485;SDS011;53303;47.476;8.084;2023-03-02T08:34:18;11.88;;;6.38;;
66485;SDS011;53303;47.476;8.084;2023-03-02T08:36:44;11.93;;;6.70;;
66485;SDS011;53303;47.476;8.084;2023-03-02T08:39:10;11.57;;;6.00;;
66485;SDS011;53303;47.476;8.084;2023-03-02T08:41:35;10.50;;;6.43;;
66485;SDS011;53303;47.476;8.084;2023-03-02T08:44:01;13.75;;;6.63;;
66485;SDS011;53303;47.476;8.084;2023-03-02T08:46:28;11.27;;;6.45;;
66485;SDS011;53303;47.476;8.084;2023-03-02T08:48:54;9.75;;;6.05;;
66485;SDS011;53303;47.476;8.084;2023-03-02T08:51:20;14.32;;;6.47;;
66485;SDS011;53303;47.476;8.084;2023-03-02T08:53:48;13.27;;;6.38;;
66485;SDS011;53303;47.476;8.084;2023-03-02T08:56:17;12.48;;;6.70;;
66485;SDS011;53303;47.476;8.084;2023-03-02T08:58:44;10.88;;;6.53;;
66485;SDS011;53303;47.476;8.084;2023-03-02T09:01:14;14.40;;;6.18;;
66485;SDS011;53303;47.476;8.084;2023-03-02T09:03:43;10.10;;;6.00;;
66485;SDS011;53303;47.476;8.084;2023-03-02T09:06:09;10.10;;;6.60;;
66485;SDS011;53303;47.476;8.084;2023-03-02T09:08:37;10.93;;;6.65;;
66485;SDS011;53303;47.476;8.084;2023-03-02T09:11:03;10.90;;;6.28;;
66485;SDS011;53303;47.476;8.084;2023-03-02T09:13:29;11.98;;;6.38;;
66485;SDS011;53303;47.476;8.084;2023-03-02T09:15:55;13.80;;;6.70;;
66485;SDS011;53303;47.476;8.084;2023-03-02T09:18:20;12.18;;;6.50;;
66485;SDS011;53303;47.476;8.084;2023-03-02T09:20:52;12.15;;;6.07;;
66485;SDS011;53303;47.476;8.084;2023-03-02T09:23:20;11.85;;;6.10;;
66485;SDS011;53303;47.476;8.084;2023-03-02T09:25:46;10.35;;;6.10;;
66485;SDS011;53303;47.476;8.084;2023-03-02T09:28:12;10.73;;;6.50;;
66485;SDS011;53303;47.476;8.084;2023-03-02T09:30:39;10.23;;;6.18;;
66485;SDS011;53303;47.476;8.084;2023-03-02T09:33:07;10.18;;;6.18;;
66485;SDS011;53303;47.476;8.084;2023-03-02T09:35:33;10.88;;;6.68;;
66485;SDS011;53303;47.476;8.084;2023-03-02T09:37:58;11.23;;;6.43;;
66485;SDS011;53303;47.476;8.084;2023-03-02T09:40:24;11.00;;;6.53;;
66485;SDS011;53303;47.476;8.084;2023-03-02T09:45:32;11.48;;;6.60;;
66485;SDS011;53303;47.476;8.084;2023-03-02T09:51:09;11.00;;;5.88;;
66485;SDS011;53303;47.476;8.084;2023-03-02T09:54:33;10.45;;;6.47;;
66485;SDS011;53303;47.476;8.084;2023-03-02T09:56:44;13.38;;;6.50;;
66485;SDS011;53303;47.476;8.084;2023-03-02T09:59:17;10.52;;;6.35;;
66485;SDS011;53303;47.476;8.084;2023-03-02T10:01:48;12.50;;;6.65;;
66485;SDS011;53303;47.476;8.084;2023-03-02T10:04:29;10.20;;;6.15;;
66485;SDS011;53303;47.476;8.084;2023-03-02T10:07:00;11.10;;;6.40;;
66485;SDS011;53303;47.476;8.084;2023-03-02T10:09:35;10.65;;;6.03;;
66485;SDS011;53303;47.476;8.084;2023-03-02T10:12:07;12.57;;;6.82;;
66485;SDS011;53303;47.476;8.084;2023-03-02T10:14:43;11.02;;;6.18;;
66485;SDS011;53303;47.476;8.084;2023-03-02T10:17:21;10.50;;;6.90;;
66485;SDS011;53303;47.476;8.084;2023-03-02T10:20:02;10.65;;;6.45;;
66485;SDS011;53303;47.476;8.084;2023-03-02T10:22:33;10.93;;;6.18;;
66485;SDS011;53303;47.476;8.084;2023-03-02T10:27:50;11.18;;;6.07;;
66485;SDS011;53303;47.476;8.084;2023-03-02T10:30:29;10.18;;;6.35;;
66485;SDS011;53303;47.476;8.084;2023-03-02T10:33:17;9.75;;;6.30;;
66485;SDS011;53303;47.476;8.084;2023-03-02T10:35:45;11.40;;;6.35;;
66485;SDS011;53303;47.476;8.084;2023-03-02T10:38:16;11.00;;;6.70;;
66485;SDS011;53303;47.476;8.084;2023-03-02T10:40:50;11.80;;;7.18;;
66485;SDS011;53303;47.476;8.084;2023-03-02T10:45:58;10.77;;;6.25;;
66485;SDS011;53303;47.476;8.084;2023-03-02T10:48:27;11.27;;;6.57;;
66485;SDS011;53303;47.476;8.084;2023-03-02T10:50:53;11.35;;;7.03;;
66485;SDS011;53303;47.476;8.084;2023-03-02T10:53:20;11.32;;;6.70;;
66485;SDS011;53303;47.476;8.084;2023-03-02T10:55:46;10.57;;;6.57;;
66485;SDS011;53303;47.476;8.084;2023-03-02T11:00:58;11.52;;;6.53;;
66485;SDS011;53303;47.476;8.084;2023-03-02T11:03:26;11.57;;;6.63;;
66485;SDS011;53303;47.476;8.084;2023-03-02T11:05:53;14.05;;;7.13;;
66485;SDS011;53303;47.476;8.084;2023-03-02T11:08:19;12.95;;;6.78;;
66485;SDS011;53303;47.476;8.084;2023-03-02T11:10:51;10.13;;;6.32;;
66485;SDS011;53303;47.476;8.084;2023-03-02T11:13:19;11.77;;;7.05;;
66485;SDS011;53303;47.476;8.084;2023-03-02T11:15:52;12.25;;;6.85;;
66485;SDS011;53303;47.476;8.084;2023-03-02T11:20:56;11.10;;;6.53;;
66485;SDS011;53303;47.476;8.084;2023-03-02T11:25:57;12.75;;;6.88;;
66485;SDS011;53303;47.476;8.084;2023-03-02T11:28:34;11.27;;;6.85;;
66485;SDS011;53303;47.476;8.084;2023-03-02T11:39:31;10.90;;;6.45;;
66485;SDS011;53303;47.476;8.084;2023-03-02T11:44:57;11.32;;;6.50;;
66485;SDS011;53303;47.476;8.084;2023-03-02T11:47:25;11.00;;;6.95;;
66485;SDS011;53303;47.476;8.084;2023-03-02T11:49:56;10.88;;;6.50;;
66485;SDS011;53303;47.476;8.084;2023-03-02T11:52:25;11.27;;;6.80;;
66485;SDS011;53303;47.476;8.084;2023-03-02T11:54:56;12.25;;;7.10;;
66485;SDS011;53303;47.476;8.084;2023-03-02T11:57:32;10.20;;;5.93;;
66485;SDS011;53303;47.476;8.084;2023-03-02T12:00:01;11.45;;;6.72;;
66485;SDS011;53303;47.476;8.084;2023-03-02T12:02:35;11.57;;;6.80;;
66485;SDS011;53303;47.476;8.084;2023-03-02T12:05:01;10.10;;;6.75;;
66485;SDS011;53303;47.476;8.084;2023-03-02T12:07:32;11.40;;;6.93;;
66485;SDS011;53303;47.476;8.084;2023-03-02T12:09:59;11.27;;;6.65;;
66485;SDS011;53303;47.476;8.084;2023-03-02T12:12:35;11.35;;;7.03;;
66485;SDS011;53303;47.476;8.084;2023-03-02T12:15:27;10.63;;;6.57;;
66485;SDS011;53303;47.476;8.084;2023-03-02T12:18:00;12.55;;;7.22;;
66485;SDS011;53303;47.476;8.084;2023-03-02T12:20:27;10.75;;;6.68;;
66485;SDS011;53303;47.476;8.084;2023-03-02T12:22:53;11.77;;;6.80;;
66485;SDS011;53303;47.476;8.084;2023-03-02T12:25:36;10.38;;;6.53;;
66485;SDS011;53303;47.476;8.084;2023-03-02T12:28:23;11.50;;;6.80;;
66485;SDS011;53303;47.476;8.084;2023-03-02T12:31:00;11.98;;;6.70;;
66485;SDS011;53303;47.476;8.084;2023-03-02T12:33:31;10.93;;;6.88;;
66485;SDS011;53303;47.476;8.084;2023-03-02T12:36:03;12.25;;;7.10;;
66485;SDS011;53303;47.476;8.084;2023-03-02T12:38:36;13.98;;;6.65;;
66485;SDS011;53303;47.476;8.084;2023-03-02T12:46:38;10.82;;;6.95;;
66485;SDS011;53303;47.476;8.084;2023-03-02T12:51:57;10.65;;;6.40;;
66485;SDS011;53303;47.476;8.084;2023-03-02T12:54:27;12.23;;;6.68;;
66485;SDS011;53303;47.476;8.084;2023-03-02T12:59:42;11.65;;;7.20;;
66485;SDS011;53303;47.476;8.084;2023-03-02T13:05:06;13.60;;;7.22;;
66485;SDS011;53303;47.476;8.084;2023-03-02T13:07:37;13.70;;;7.20;;
66485;SDS011;53303;47.476;8.084;2023-03-02T13:10:20;12.55;;;7.15;;
66485;SDS011;53303;47.476;8.084;2023-03-02T13:12:46;10.32;;;6.65;;
66485;SDS011;53303;47.476;8.084;2023-03-02T13:15:12;10.93;;;6.88;;
66485;SDS011;53303;47.476;8.084;2023-03-02T13:17:43;11.43;;;6.85;;
66485;SDS011;53303;47.476;8.084;2023-03-02T13:20:16;11.05;;;6.70;;
66485;SDS011;53303;47.476;8.084;2023-03-02T13:22:42;11.82;;;7.18;;
66485;SDS011;53303;47.476;8.084;2023-03-02T13:25:16;12.00;;;7.20;;
66485;SDS011;53303;47.476;8.084;2023-03-02T13:27:52;11.45;;;7.05;;
66485;SDS011;53303;47.476;8.084;2023-03-02T13:30:26;12.18;;;7.38;;
66485;SDS011;53303;47.476;8.084;2023-03-02T13:32:55;10.30;;;6.45;;
66485;SDS011;53303;47.476;8.084;2023-03-02T13:35:26;10.18;;;6.82;;
66485;SDS011;53303;47.476;8.084;2023-03-02T13:38:04;11.73;;;7.05;;
66485;SDS011;53303;47.476;8.084;2023-03-02T13:40:39;10.20;;;6.65;;
66485;SDS011;53303;47.476;8.084;2023-03-02T13:45:51;10.10;;;6.82;;
66485;SDS011;53303;47.476;8.084;2023-03-02T13:48:21;12.25;;;7.20;;
66485;SDS011;53303;47.476;8.084;2023-03-02T13:51:13;10.68;;;7.03;;
66485;SDS011;53303;47.476;8.084;2023-03-02T13:53:56;10.30;;;6.72;;
66485;SDS011;53303;47.476;8.084;2023-03-02T13:56:28;10.73;;;7.30;;
66485;SDS011;53303;47.476;8.084;2023-03-02T13:58:56;11.50;;;6.80;;
66485;SDS011;53303;47.476;8.084;2023-03-02T14:01:22;10.40;;;6.97;;
66485;SDS011;53303;47.476;8.084;2023-03-02T14:03:48;10.98;;;6.82;;
66485;SDS011;53303;47.476;8.084;2023-03-02T14:06:13;11.48;;;7.07;;
66485;SDS011;53303;47.476;8.084;2023-03-02T14:08:39;10.07;;;6.85;;
66485;SDS011;53303;47.476;8.084;2023-03-02T14:11:09;10.88;;;7.05;;
66485;SDS011;53303;47.476;8.084;2023-03-02T14:16:04;11.57;;;6.85;;
66485;SDS011;53303;47.476;8.084;2023-03-02T14:20:57;10.95;;;6.93;;
66485;SDS011;53303;47.476;8.084;2023-03-02T14:23:25;11.23;;;7.28;;
66485;SDS011;53303;47.476;8.084;2023-03-02T14:25:51;10.23;;;6.97;;
66485;SDS011;53303;47.476;8.084;2023-03-02T14:28:22;12.40;;;7.28;;
66485;SDS011;53303;47.476;8.084;2023-03-02T14:30:51;13.32;;;6.95;;
66485;SDS011;53303;47.476;8.084;2023-03-02T14:33:18;13.13;;;7.30;;
66485;SDS011;53303;47.476;8.084;2023-03-02T14:35:48;12.50;;;7.40;;
66485;SDS011;53303;47.476;8.084;2023-03-02T14:38:14;10.85;;;7.20;;
66485;SDS011;53303;47.476;8.084;2023-03-02T14:40:40;10.70;;;7.30;;
66485;SDS011;53303;47.476;8.084;2023-03-02T14:43:05;9.48;;;6.70;;
66485;SDS011;53303;47.476;8.084;2023-03-02T14:45:33;10.80;;;6.78;;
66485;SDS011;53303;47.476;8.084;2023-03-02T14:47:58;12.75;;;6.90;;
66485;SDS011;53303;47.476;8.084;2023-03-02T14:50:26;11.18;;;6.95;;
66485;SDS011;53303;47.476;8.084;2023-03-02T14:52:56;12.25;;;7.18;;
66485;SDS011;53303;47.476;8.084;2023-03-02T14:57:55;11.30;;;7.53;;
66485;SDS011;53303;47.476;8.084;2023-03-02T15:00:23;11.77;;;6.90;;
66485;SDS011;53303;47.476;8.084;2023-03-02T15:02:49;12.75;;;7.25;;
66485;SDS011;53303;47.476;8.084;2023-03-02T15:05:17;15.30;;;6.88;;
66485;SDS011;53303;47.476;8.084;2023-03-02T15:07:43;10.18;;;6.78;;
66485;SDS011;53303;47.476;8.084;2023-03-02T15:10:13;13.10;;;7.50;;
66485;SDS011;53303;47.476;8.084;2023-03-02T15:12:41;12.30;;;7.05;;
66485;SDS011;53303;47.476;8.084;2023-03-02T15:15:08;13.13;;;7.32;;
66485;SDS011;53303;47.476;8.084;2023-03-02T15:17:34;13.85;;;7.22;;
66485;SDS011;53303;47.476;8.084;2023-03-02T15:20:00;12.90;;;7.85;;
66485;SDS011;53303;47.476;8.084;2023-03-02T15:22:25;11.60;;;7.13;;
66485;SDS011;53303;47.476;8.084;2023-03-02T15:24:55;10.45;;;6.97;;
66485;SDS011;53303;47.476;8.084;2023-03-02T15:27:23;11.63;;;7.35;;
66485;SDS011;53303;47.476;8.084;2023-03-02T15:29:49;10.43;;;7.00;;
66485;SDS011;53303;47.476;8.084;2023-03-02T15:32:15;12.45;;;7.15;;
66485;SDS011;53303;47.476;8.084;2023-03-02T15:34:42;12.43;;;7.05;;
66485;SDS011;53303;47.476;8.084;2023-03-02T15:37:11;11.45;;;7.28;;
66485;SDS011;53303;47.476;8.084;2023-03-02T15:39:37;11.23;;;7.07;;
66485;SDS011;53303;47.476;8.084;2023-03-02T15:42:02;11.82;;;7.47;;
66485;SDS011;53303;47.476;8.084;2023-03-02T15:44:28;11.07;;;7.35;;
66485;SDS011;53303;47.476;8.084;2023-03-02T15:46:55;12.50;;;7.30;;
66485;SDS011;53303;47.476;8.084;2023-03-02T15:49:26;12.18;;;7.43;;